sensor_id;sensor_type;location;lat;lon;timestamp;P1;durP1;ratioP1;P2;durP2;ratioP2
74630;SDS011;63138;55.082;38.804;2024-01-25T00:00:16;22.67;;;12.45;;
74630;SDS011;63138;55.082;38.804;2024-01-25T00:02:42;26.77;;;12.77;;
74630;SDS011;63138;55.082;38.804;2024-01-25T00:05:08;25.17;;;9.63;;
74630;SDS011;63138;55.082;38.804;2024-01-25T00:07:44;19.15;;;10.65;;
74630;SDS011;63138;55.082;38.804;2024-01-25T00:10:15;26.48;;;12.70;;
74630;SDS011;63138;55.082;38.804;2024-01-25T00:12:44;24.47;;;12.43;;
74630;SDS011;63138;55.082;38.804;2024-01-25T00:15:10;23.40;;;11.27;;
74630;SDS011;63138;55.082;38.804;2024-01-25T00:17:36;27.70;;;11.00;;
74630;SDS011;63138;55.082;38.804;2024-01-25T00:20:03;26.63;;;13.75;;
74630;SDS011;63138;55.082;38.804;2024-01-25T00:22:31;24.67;;;11.98;;
74630;SDS011;63138;55.082;38.804;2024-01-25T00:24:57;18.20;;;11.53;;
74630;SDS011;63138;55.082;38.804;2024-01-25T00:27:25;28.27;;;12.55;;
74630;SDS011;63138;55.082;38.804;2024-01-25T00:29:51;27.15;;;12.23;;
74630;SDS011;63138;55.082;38.804;2024-01-25T00:32:17;19.83;;;10.57;;
74630;SDS011;63138;55.082;38.804;2024-01-25T00:34:42;30.88;;;12.93;;
74630;SDS011;63138;55.082;38.804;2024-01-25T00:37:09;18.75;;;11.65;;
74630;SDS011;63138;55.082;38.804;2024-01-25T00:39:35;26.05;;;11.93;;
74630;SDS011;63138;55.082;38.804;2024-01-25T00:42:05;27.93;;;12.97;;
74630;SDS011;63138;55.082;38.804;2024-01-25T00:44:32;26.98;;;14.07;;
74630;SDS011;63138;55.082;38.804;2024-01-25T00:46:59;19.40;;;11.32;;
74630;SDS011;63138;55.082;38.804;2024-01-25T00:49:25;24.63;;;12.07;;
74630;SDS011;63138;55.082;38.804;2024-01-25T00:51:53;18.08;;;10.82;;
74630;SDS011;63138;55.082;38.804;2024-01-25T00:54:26;24.20;;;12.03;;
74630;SDS011;63138;55.082;38.804;2024-01-25T00:56:52;24.27;;;11.18;;
74630;SDS011;63138;55.082;38.804;2024-01-25T00:59:19;29.67;;;13.10;;
74630;SDS011;63138;55.082;38.804;2024-01-25T01:01:46;30.50;;;13.88;;
74630;SDS011;63138;55.082;38.804;2024-01-25T01:04:16;30.15;;;13.40;;
74630;SDS011;63138;55.082;38.804;2024-01-25T01:06:43;25.90;;;12.07;;
74630;SDS011;63138;55.082;38.804;2024-01-25T01:09:10;26.50;;;13.55;;
74630;SDS011;63138;55.082;38.804;2024-01-25T01:11:36;19.35;;;10.13;;
74630;SDS011;63138;55.082;38.804;2024-01-25T01:14:02;29.02;;;15.32;;
74630;SDS011;63138;55.082;38.804;2024-01-25T01:16:28;28.08;;;12.60;;
74630;SDS011;63138;55.082;38.804;2024-01-25T01:18:58;29.50;;;16.58;;
74630;SDS011;63138;55.082;38.804;2024-01-25T01:21:32;33.00;;;18.23;;
74630;SDS011;63138;55.082;38.804;2024-01-25T01:23:59;33.10;;;16.35;;
74630;SDS011;63138;55.082;38.804;2024-01-25T01:26:24;35.50;;;16.63;;
74630;SDS011;63138;55.082;38.804;2024-01-25T01:28:50;27.48;;;12.75;;
74630;SDS011;63138;55.082;38.804;2024-01-25T01:31:17;29.25;;;12.93;;
74630;SDS011;63138;55.082;38.804;2024-01-25T01:33:43;29.42;;;15.60;;
74630;SDS011;63138;55.082;38.804;2024-01-25T01:36:09;26.67;;;15.80;;
74630;SDS011;63138;55.082;38.804;2024-01-25T01:38:35;38.60;;;18.77;;
74630;SDS011;63138;55.082;38.804;2024-01-25T01:41:00;34.13;;;13.13;;
74630;SDS011;63138;55.082;38.804;2024-01-25T01:43:26;31.77;;;14.77;;
74630;SDS011;63138;55.082;38.804;2024-01-25T01:45:52;38.55;;;15.93;;
74630;SDS011;63138;55.082;38.804;2024-01-25T01:48:24;29.85;;;16.88;;
74630;SDS011;63138;55.082;38.804;2024-01-25T01:50:50;27.30;;;13.70;;
74630;SDS011;63138;55.082;38.804;2024-01-25T01:53:17;34.20;;;15.75;;
74630;SDS011;63138;55.082;38.804;2024-01-25T01:55:43;28.52;;;14.30;;
74630;SDS011;63138;55.082;38.804;2024-01-25T01:58:09;40.33;;;20.58;;
74630;SDS011;63138;55.082;38.804;2024-01-25T02:00:36;35.92;;;16.67;;
74630;SDS011;63138;55.082;38.804;2024-01-25T02:03:04;42.97;;;21.20;;
74630;SDS011;63138;55.082;38.804;2024-01-25T02:05:30;41.60;;;19.35;;
74630;SDS011;63138;55.082;38.804;2024-01-25T02:07:56;55.10;;;18.15;;
74630;SDS011;63138;55.082;38.804;2024-01-25T02:10:22;38.55;;;16.63;;
74630;SDS011;63138;55.082;38.804;2024-01-25T02:12:48;38.90;;;18.27;;
74630;SDS011;63138;55.082;38.804;2024-01-25T02:15:14;40.58;;;19.38;;
74630;SDS011;63138;55.082;38.804;2024-01-25T02:17:40;39.20;;;19.65;;
74630;SDS011;63138;55.082;38.804;2024-01-25T02:20:06;41.38;;;17.35;;
74630;SDS011;63138;55.082;38.804;2024-01-25T02:22:33;32.20;;;13.80;;
74630;SDS011;63138;55.082;38.804;2024-01-25T02:24:59;32.58;;;17.08;;
74630;SDS011;63138;55.082;38.804;2024-01-25T02:27:25;35.08;;;17.10;;
74630;SDS011;63138;55.082;38.804;2024-01-25T02:29:50;41.90;;;16.13;;
74630;SDS011;63138;55.082;38.804;2024-01-25T02:32:16;38.22;;;17.25;;
74630;SDS011;63138;55.082;38.804;2024-01-25T02:34:42;39.10;;;18.23;;
74630;SDS011;63138;55.082;38.804;2024-01-25T02:37:08;44.80;;;19.43;;
74630;SDS011;63138;55.082;38.804;2024-01-25T02:39:36;43.47;;;19.40;;
74630;SDS011;63138;55.082;38.804;2024-01-25T02:42:02;49.40;;;22.63;;
74630;SDS011;63138;55.082;38.804;2024-01-25T02:44:28;35.00;;;15.15;;
74630;SDS011;63138;55.082;38.804;2024-01-25T02:46:54;29.50;;;15.67;;
74630;SDS011;63138;55.082;38.804;2024-01-25T02:49:20;33.85;;;15.75;;
74630;SDS011;63138;55.082;38.804;2024-01-25T02:51:46;32.30;;;16.75;;
74630;SDS011;63138;55.082;38.804;2024-01-25T02:54:12;41.20;;;14.60;;
74630;SDS011;63138;55.082;38.804;2024-01-25T02:56:38;49.65;;;20.23;;
74630;SDS011;63138;55.082;38.804;2024-01-25T02:59:04;40.30;;;17.48;;
74630;SDS011;63138;55.082;38.804;2024-01-25T03:01:40;38.58;;;20.23;;
74630;SDS011;63138;55.082;38.804;2024-01-25T03:04:08;41.08;;;18.77;;
74630;SDS011;63138;55.082;38.804;2024-01-25T03:06:34;43.08;;;19.60;;
74630;SDS011;63138;55.082;38.804;2024-01-25T03:09:00;42.08;;;17.67;;
74630;SDS011;63138;55.082;38.804;2024-01-25T03:11:26;40.50;;;20.07;;
74630;SDS011;63138;55.082;38.804;2024-01-25T03:13:52;38.58;;;16.27;;
74630;SDS011;63138;55.082;38.804;2024-01-25T03:16:17;39.70;;;18.05;;
74630;SDS011;63138;55.082;38.804;2024-01-25T03:18:43;34.43;;;16.27;;
74630;SDS011;63138;55.082;38.804;2024-01-25T03:21:09;50.60;;;22.77;;
74630;SDS011;63138;55.082;38.804;2024-01-25T03:23:35;32.17;;;15.27;;
74630;SDS011;63138;55.082;38.804;2024-01-25T03:26:04;35.13;;;15.87;;
74630;SDS011;63138;55.082;38.804;2024-01-25T03:28:30;37.33;;;18.02;;
74630;SDS011;63138;55.082;38.804;2024-01-25T03:30:55;49.25;;;21.52;;
74630;SDS011;63138;55.082;38.804;2024-01-25T03:33:21;41.97;;;15.17;;
74630;SDS011;63138;55.082;38.804;2024-01-25T03:35:47;35.28;;;17.95;;
74630;SDS011;63138;55.082;38.804;2024-01-25T03:38:13;30.80;;;15.17;;
74630;SDS011;63138;55.082;38.804;2024-01-25T03:40:39;30.63;;;15.63;;
74630;SDS011;63138;55.082;38.804;2024-01-25T03:43:05;39.83;;;18.70;;
74630;SDS011;63138;55.082;38.804;2024-01-25T03:45:31;31.63;;;15.10;;
74630;SDS011;63138;55.082;38.804;2024-01-25T03:47:58;32.72;;;16.35;;
74630;SDS011;63138;55.082;38.804;2024-01-25T03:50:24;42.13;;;21.38;;
74630;SDS011;63138;55.082;38.804;2024-01-25T03:52:50;39.83;;;17.58;;
74630;SDS011;63138;55.082;38.804;2024-01-25T03:55:16;37.33;;;17.27;;
74630;SDS011;63138;55.082;38.804;2024-01-25T03:57:44;38.80;;;17.08;;
74630;SDS011;63138;55.082;38.804;2024-01-25T04:00:10;37.17;;;19.42;;
74630;SDS011;63138;55.082;38.804;2024-01-25T04:02:38;26.33;;;14.15;;
74630;SDS011;63138;55.082;38.804;2024-01-25T04:05:05;35.28;;;14.18;;
74630;SDS011;63138;55.082;38.804;2024-01-25T04:07:31;38.50;;;20.13;;
74630;SDS011;63138;55.082;38.804;2024-01-25T04:09:57;25.23;;;12.13;;
74630;SDS011;63138;55.082;38.804;2024-01-25T04:12:23;24.60;;;11.93;;
74630;SDS011;63138;55.082;38.804;2024-01-25T04:14:50;31.40;;;16.02;;
74630;SDS011;63138;55.082;38.804;2024-01-25T04:17:16;38.28;;;17.98;;
74630;SDS011;63138;55.082;38.804;2024-01-25T04:19:42;33.73;;;10.77;;
74630;SDS011;63138;55.082;38.804;2024-01-25T04:22:08;31.02;;;12.20;;
74630;SDS011;63138;55.082;38.804;2024-01-25T04:24:34;32.70;;;13.68;;
74630;SDS011;63138;55.082;38.804;2024-01-25T04:27:00;30.17;;;14.23;;
74630;SDS011;63138;55.082;38.804;2024-01-25T04:29:26;31.10;;;12.50;;
74630;SDS011;63138;55.082;38.804;2024-01-25T04:31:52;30.38;;;13.73;;
74630;SDS011;63138;55.082;38.804;2024-01-25T04:34:18;30.25;;;15.05;;
74630;SDS011;63138;55.082;38.804;2024-01-25T04:36:44;26.67;;;14.25;;
74630;SDS011;63138;55.082;38.804;2024-01-25T04:39:10;27.63;;;12.13;;
74630;SDS011;63138;55.082;38.804;2024-01-25T04:41:54;29.77;;;13.38;;
74630;SDS011;63138;55.082;38.804;2024-01-25T04:44:20;25.20;;;10.87;;
74630;SDS011;63138;55.082;38.804;2024-01-25T04:46:46;30.60;;;13.05;;
74630;SDS011;63138;55.082;38.804;2024-01-25T04:49:12;29.05;;;14.52;;
74630;SDS011;63138;55.082;38.804;2024-01-25T04:51:38;27.87;;;13.13;;
74630;SDS011;63138;55.082;38.804;2024-01-25T04:54:04;31.17;;;14.55;;
74630;SDS011;63138;55.082;38.804;2024-01-25T04:56:32;28.70;;;12.57;;
74630;SDS011;63138;55.082;38.804;2024-01-25T04:58:58;24.83;;;11.15;;
74630;SDS011;63138;55.082;38.804;2024-01-25T05:01:24;22.50;;;10.75;;
74630;SDS011;63138;55.082;38.804;2024-01-25T05:03:50;28.65;;;11.80;;
74630;SDS011;63138;55.082;38.804;2024-01-25T05:06:16;31.35;;;15.63;;
74630;SDS011;63138;55.082;38.804;2024-01-25T05:08:42;26.00;;;14.20;;
74630;SDS011;63138;55.082;38.804;2024-01-25T05:11:09;25.70;;;14.50;;
74630;SDS011;63138;55.082;38.804;2024-01-25T05:13:35;31.88;;;12.77;;
74630;SDS011;63138;55.082;38.804;2024-01-25T05:16:01;30.38;;;14.80;;
74630;SDS011;63138;55.082;38.804;2024-01-25T05:18:26;31.20;;;16.03;;
74630;SDS011;63138;55.082;38.804;2024-01-25T05:20:53;19.17;;;10.55;;
74630;SDS011;63138;55.082;38.804;2024-01-25T05:23:19;18.67;;;10.35;;
74630;SDS011;63138;55.082;38.804;2024-01-25T05:25:45;22.65;;;10.85;;
74630;SDS011;63138;55.082;38.804;2024-01-25T05:28:11;23.17;;;11.10;;
74630;SDS011;63138;55.082;38.804;2024-01-25T05:30:37;20.30;;;10.20;;
74630;SDS011;63138;55.082;38.804;2024-01-25T05:33:04;21.85;;;9.48;;
74630;SDS011;63138;55.082;38.804;2024-01-25T05:35:30;20.45;;;10.80;;
74630;SDS011;63138;55.082;38.804;2024-01-25T05:37:56;25.20;;;9.25;;
74630;SDS011;63138;55.082;38.804;2024-01-25T05:40:21;25.67;;;11.13;;
74630;SDS011;63138;55.082;38.804;2024-01-25T05:42:48;19.38;;;10.65;;
74630;SDS011;63138;55.082;38.804;2024-01-25T05:45:13;26.23;;;12.55;;
74630;SDS011;63138;55.082;38.804;2024-01-25T05:47:39;27.77;;;11.00;;
74630;SDS011;63138;55.082;38.804;2024-01-25T05:50:06;29.87;;;11.97;;
74630;SDS011;63138;55.082;38.804;2024-01-25T05:52:34;21.63;;;12.40;;
74630;SDS011;63138;55.082;38.804;2024-01-25T05:55:03;23.15;;;10.70;;
74630;SDS011;63138;55.082;38.804;2024-01-25T05:57:30;20.52;;;10.07;;
74630;SDS011;63138;55.082;38.804;2024-01-25T05:59:56;21.60;;;10.77;;
74630;SDS011;63138;55.082;38.804;2024-01-25T06:02:22;19.33;;;8.70;;
74630;SDS011;63138;55.082;38.804;2024-01-25T06:04:47;19.17;;;11.23;;
74630;SDS011;63138;55.082;38.804;2024-01-25T06:07:15;23.20;;;9.65;;
74630;SDS011;63138;55.082;38.804;2024-01-25T06:09:41;15.87;;;9.70;;
74630;SDS011;63138;55.082;38.804;2024-01-25T06:12:08;20.00;;;9.73;;
74630;SDS011;63138;55.082;38.804;2024-01-25T06:14:34;25.42;;;12.68;;
74630;SDS011;63138;55.082;38.804;2024-01-25T06:17:00;22.50;;;8.68;;
74630;SDS011;63138;55.082;38.804;2024-01-25T06:19:26;21.27;;;10.50;;
74630;SDS011;63138;55.082;38.804;2024-01-25T06:21:51;26.48;;;12.32;;
74630;SDS011;63138;55.082;38.804;2024-01-25T06:24:17;25.42;;;12.20;;
74630;SDS011;63138;55.082;38.804;2024-01-25T06:26:43;25.35;;;11.32;;
74630;SDS011;63138;55.082;38.804;2024-01-25T06:29:09;23.58;;;10.73;;
74630;SDS011;63138;55.082;38.804;2024-01-25T06:31:41;20.50;;;11.07;;
74630;SDS011;63138;55.082;38.804;2024-01-25T06:34:09;19.77;;;10.68;;
74630;SDS011;63138;55.082;38.804;2024-01-25T06:36:35;24.52;;;10.73;;
74630;SDS011;63138;55.082;38.804;2024-01-25T06:39:01;22.40;;;11.70;;
74630;SDS011;63138;55.082;38.804;2024-01-25T06:41:27;21.90;;;10.50;;
74630;SDS011;63138;55.082;38.804;2024-01-25T06:43:53;24.67;;;13.10;;
74630;SDS011;63138;55.082;38.804;2024-01-25T06:46:19;27.10;;;12.98;;
74630;SDS011;63138;55.082;38.804;2024-01-25T06:49:03;31.58;;;13.30;;
74630;SDS011;63138;55.082;38.804;2024-01-25T06:51:29;22.98;;;12.55;;
74630;SDS011;63138;55.082;38.804;2024-01-25T06:53:55;21.98;;;10.65;;
74630;SDS011;63138;55.082;38.804;2024-01-25T06:56:21;25.67;;;10.65;;
74630;SDS011;63138;55.082;38.804;2024-01-25T06:58:47;27.77;;;14.57;;
74630;SDS011;63138;55.082;38.804;2024-01-25T07:01:13;19.67;;;9.57;;
74630;SDS011;63138;55.082;38.804;2024-01-25T07:03:46;25.35;;;13.45;;
74630;SDS011;63138;55.082;38.804;2024-01-25T07:06:12;20.40;;;12.25;;
74630;SDS011;63138;55.082;38.804;2024-01-25T07:08:38;20.20;;;11.77;;
74630;SDS011;63138;55.082;38.804;2024-01-25T07:11:05;27.67;;;14.73;;
74630;SDS011;63138;55.082;38.804;2024-01-25T07:13:30;26.02;;;11.55;;
74630;SDS011;63138;55.082;38.804;2024-01-25T07:15:56;19.55;;;11.50;;
74630;SDS011;63138;55.082;38.804;2024-01-25T07:18:22;23.33;;;9.93;;
74630;SDS011;63138;55.082;38.804;2024-01-25T07:20:50;24.98;;;11.60;;
74630;SDS011;63138;55.082;38.804;2024-01-25T07:23:16;20.92;;;10.18;;
74630;SDS011;63138;55.082;38.804;2024-01-25T07:25:42;21.50;;;11.55;;
74630;SDS011;63138;55.082;38.804;2024-01-25T07:28:09;28.95;;;13.38;;
74630;SDS011;63138;55.082;38.804;2024-01-25T07:30:36;19.45;;;10.30;;
74630;SDS011;63138;55.082;38.804;2024-01-25T07:33:03;23.73;;;10.32;;
74630;SDS011;63138;55.082;38.804;2024-01-25T07:35:29;25.85;;;13.20;;
74630;SDS011;63138;55.082;38.804;2024-01-25T07:37:55;28.75;;;14.70;;
74630;SDS011;63138;55.082;38.804;2024-01-25T07:43:13;17.58;;;8.50;;
74630;SDS011;63138;55.082;38.804;2024-01-25T07:45:40;19.27;;;9.75;;
74630;SDS011;63138;55.082;38.804;2024-01-25T07:48:06;16.67;;;10.18;;
74630;SDS011;63138;55.082;38.804;2024-01-25T07:50:32;18.63;;;9.30;;
74630;SDS011;63138;55.082;38.804;2024-01-25T07:52:58;18.30;;;9.30;;
74630;SDS011;63138;55.082;38.804;2024-01-25T07:58:42;17.50;;;9.50;;
74630;SDS011;63138;55.082;38.804;2024-01-25T08:01:08;19.30;;;10.95;;
74630;SDS011;63138;55.082;38.804;2024-01-25T08:03:34;14.02;;;8.10;;
74630;SDS011;63138;55.082;38.804;2024-01-25T08:06:01;14.37;;;8.57;;
74630;SDS011;63138;55.082;38.804;2024-01-25T08:08:30;15.80;;;10.68;;
74630;SDS011;63138;55.082;38.804;2024-01-25T08:10:57;15.57;;;9.43;;
74630;SDS011;63138;55.082;38.804;2024-01-25T08:13:24;13.85;;;8.52;;
74630;SDS011;63138;55.082;38.804;2024-01-25T08:15:50;17.20;;;9.30;;
74630;SDS011;63138;55.082;38.804;2024-01-25T08:18:16;14.57;;;9.15;;
74630;SDS011;63138;55.082;38.804;2024-01-25T08:20:47;23.88;;;9.80;;
74630;SDS011;63138;55.082;38.804;2024-01-25T08:23:13;14.80;;;8.60;;
74630;SDS011;63138;55.082;38.804;2024-01-25T08:25:39;14.75;;;9.18;;
74630;SDS011;63138;55.082;38.804;2024-01-25T08:28:05;14.77;;;9.82;;
74630;SDS011;63138;55.082;38.804;2024-01-25T08:30:33;15.55;;;8.60;;
74630;SDS011;63138;55.082;38.804;2024-01-25T08:32:59;14.68;;;8.65;;
74630;SDS011;63138;55.082;38.804;2024-01-25T08:35:29;12.68;;;6.97;;
74630;SDS011;63138;55.082;38.804;2024-01-25T08:37:58;15.30;;;8.80;;
74630;SDS011;63138;55.082;38.804;2024-01-25T08:40:23;16.10;;;9.70;;
74630;SDS011;63138;55.082;38.804;2024-01-25T08:42:49;17.80;;;9.45;;
74630;SDS011;63138;55.082;38.804;2024-01-25T08:45:15;14.80;;;8.65;;
74630;SDS011;63138;55.082;38.804;2024-01-25T08:47:41;13.70;;;8.60;;
74630;SDS011;63138;55.082;38.804;2024-01-25T08:50:16;14.82;;;9.35;;
74630;SDS011;63138;55.082;38.804;2024-01-25T08:52:43;16.92;;;8.93;;
74630;SDS011;63138;55.082;38.804;2024-01-25T08:55:09;18.85;;;9.23;;
74630;SDS011;63138;55.082;38.804;2024-01-25T08:57:35;15.88;;;9.55;;
74630;SDS011;63138;55.082;38.804;2024-01-25T09:00:02;17.83;;;8.93;;
74630;SDS011;63138;55.082;38.804;2024-01-25T09:02:34;16.70;;;9.00;;
74630;SDS011;63138;55.082;38.804;2024-01-25T09:05:02;16.33;;;10.50;;
74630;SDS011;63138;55.082;38.804;2024-01-25T09:07:29;12.65;;;7.82;;
74630;SDS011;63138;55.082;38.804;2024-01-25T09:09:55;15.80;;;10.27;;
74630;SDS011;63138;55.082;38.804;2024-01-25T09:12:21;15.00;;;9.60;;
74630;SDS011;63138;55.082;38.804;2024-01-25T09:14:48;13.43;;;8.38;;
74630;SDS011;63138;55.082;38.804;2024-01-25T09:17:13;12.00;;;7.57;;
74630;SDS011;63138;55.082;38.804;2024-01-25T09:19:41;16.70;;;8.88;;
74630;SDS011;63138;55.082;38.804;2024-01-25T09:22:07;12.10;;;8.25;;
74630;SDS011;63138;55.082;38.804;2024-01-25T09:24:35;16.88;;;7.05;;
74630;SDS011;63138;55.082;38.804;2024-01-25T09:27:02;14.13;;;8.70;;
74630;SDS011;63138;55.082;38.804;2024-01-25T09:29:29;11.95;;;9.27;;
74630;SDS011;63138;55.082;38.804;2024-01-25T09:31:56;15.82;;;10.48;;
74630;SDS011;63138;55.082;38.804;2024-01-25T09:34:21;12.98;;;8.18;;
74630;SDS011;63138;55.082;38.804;2024-01-25T09:36:48;10.27;;;6.10;;
74630;SDS011;63138;55.082;38.804;2024-01-25T09:39:14;15.90;;;7.67;;
74630;SDS011;63138;55.082;38.804;2024-01-25T09:41:40;12.60;;;6.88;;
74630;SDS011;63138;55.082;38.804;2024-01-25T09:44:08;12.85;;;8.15;;
74630;SDS011;63138;55.082;38.804;2024-01-25T09:46:35;12.25;;;6.85;;
74630;SDS011;63138;55.082;38.804;2024-01-25T09:49:02;13.50;;;7.47;;
74630;SDS011;63138;55.082;38.804;2024-01-25T09:51:33;12.77;;;7.22;;
74630;SDS011;63138;55.082;38.804;2024-01-25T09:54:04;13.43;;;7.78;;
74630;SDS011;63138;55.082;38.804;2024-01-25T09:56:31;14.00;;;8.20;;
74630;SDS011;63138;55.082;38.804;2024-01-25T09:58:59;12.50;;;7.70;;
74630;SDS011;63138;55.082;38.804;2024-01-25T10:01:26;13.23;;;7.35;;
74630;SDS011;63138;55.082;38.804;2024-01-25T10:03:55;9.20;;;6.78;;
74630;SDS011;63138;55.082;38.804;2024-01-25T10:06:22;13.20;;;8.13;;
74630;SDS011;63138;55.082;38.804;2024-01-25T10:08:49;12.48;;;7.35;;
74630;SDS011;63138;55.082;38.804;2024-01-25T10:11:15;11.55;;;7.05;;
74630;SDS011;63138;55.082;38.804;2024-01-25T10:16:34;10.57;;;5.97;;
74630;SDS011;63138;55.082;38.804;2024-01-25T10:19:08;13.95;;;9.82;;
74630;SDS011;63138;55.082;38.804;2024-01-25T10:21:35;13.57;;;6.85;;
74630;SDS011;63138;55.082;38.804;2024-01-25T10:24:01;13.50;;;8.07;;
74630;SDS011;63138;55.082;38.804;2024-01-25T10:26:28;13.93;;;8.55;;
74630;SDS011;63138;55.082;38.804;2024-01-25T10:28:55;13.23;;;8.35;;
74630;SDS011;63138;55.082;38.804;2024-01-25T10:31:24;10.32;;;6.38;;
74630;SDS011;63138;55.082;38.804;2024-01-25T10:33:53;11.80;;;7.43;;
74630;SDS011;63138;55.082;38.804;2024-01-25T10:36:22;11.20;;;7.20;;
74630;SDS011;63138;55.082;38.804;2024-01-25T10:38:48;14.30;;;8.02;;
74630;SDS011;63138;55.082;38.804;2024-01-25T10:41:17;14.43;;;8.77;;
74630;SDS011;63138;55.082;38.804;2024-01-25T10:43:45;14.13;;;7.53;;
74630;SDS011;63138;55.082;38.804;2024-01-25T10:46:11;14.60;;;6.40;;
74630;SDS011;63138;55.082;38.804;2024-01-25T10:48:37;11.88;;;7.30;;
74630;SDS011;63138;55.082;38.804;2024-01-25T10:51:05;15.25;;;9.57;;
74630;SDS011;63138;55.082;38.804;2024-01-25T10:53:33;17.23;;;9.32;;
74630;SDS011;63138;55.082;38.804;2024-01-25T10:56:00;16.13;;;8.90;;
74630;SDS011;63138;55.082;38.804;2024-01-25T10:58:31;15.15;;;8.85;;
74630;SDS011;63138;55.082;38.804;2024-01-25T11:01:00;14.40;;;7.15;;
74630;SDS011;63138;55.082;38.804;2024-01-25T11:03:29;12.45;;;7.03;;
74630;SDS011;63138;55.082;38.804;2024-01-25T11:06:09;11.63;;;6.57;;
74630;SDS011;63138;55.082;38.804;2024-01-25T11:08:36;16.80;;;8.20;;
74630;SDS011;63138;55.082;38.804;2024-01-25T11:11:08;11.30;;;7.15;;
74630;SDS011;63138;55.082;38.804;2024-01-25T11:13:43;15.52;;;7.65;;
74630;SDS011;63138;55.082;38.804;2024-01-25T11:16:16;14.35;;;7.53;;
74630;SDS011;63138;55.082;38.804;2024-01-25T11:18:50;14.88;;;8.10;;
74630;SDS011;63138;55.082;38.804;2024-01-25T11:21:22;18.08;;;9.52;;
74630;SDS011;63138;55.082;38.804;2024-01-25T11:24:02;13.45;;;7.63;;
74630;SDS011;63138;55.082;38.804;2024-01-25T11:26:50;14.57;;;8.55;;
74630;SDS011;63138;55.082;38.804;2024-01-25T11:29:17;16.38;;;7.47;;
74630;SDS011;63138;55.082;38.804;2024-01-25T11:31:47;14.40;;;9.43;;
74630;SDS011;63138;55.082;38.804;2024-01-25T11:34:15;17.00;;;8.32;;
74630;SDS011;63138;55.082;38.804;2024-01-25T11:36:44;14.75;;;7.78;;
74630;SDS011;63138;55.082;38.804;2024-01-25T11:39:12;14.43;;;8.00;;
74630;SDS011;63138;55.082;38.804;2024-01-25T11:41:39;16.90;;;10.30;;
74630;SDS011;63138;55.082;38.804;2024-01-25T11:44:06;12.40;;;7.50;;
74630;SDS011;63138;55.082;38.804;2024-01-25T11:46:32;19.33;;;10.75;;
74630;SDS011;63138;55.082;38.804;2024-01-25T11:49:00;15.98;;;8.73;;
74630;SDS011;63138;55.082;38.804;2024-01-25T11:51:27;15.18;;;10.25;;
74630;SDS011;63138;55.082;38.804;2024-01-25T11:53:53;15.15;;;6.95;;
74630;SDS011;63138;55.082;38.804;2024-01-25T11:56:20;19.40;;;10.07;;
74630;SDS011;63138;55.082;38.804;2024-01-25T11:58:50;19.80;;;9.75;;
74630;SDS011;63138;55.082;38.804;2024-01-25T12:01:17;14.77;;;8.15;;
74630;SDS011;63138;55.082;38.804;2024-01-25T12:03:47;17.73;;;9.15;;
74630;SDS011;63138;55.082;38.804;2024-01-25T12:06:14;16.93;;;9.97;;
74630;SDS011;63138;55.082;38.804;2024-01-25T12:08:40;18.98;;;10.93;;
74630;SDS011;63138;55.082;38.804;2024-01-25T12:11:07;19.67;;;8.77;;
74630;SDS011;63138;55.082;38.804;2024-01-25T12:13:35;21.13;;;12.90;;
74630;SDS011;63138;55.082;38.804;2024-01-25T12:16:04;18.02;;;9.98;;
74630;SDS011;63138;55.082;38.804;2024-01-25T12:18:32;13.80;;;7.77;;
74630;SDS011;63138;55.082;38.804;2024-01-25T12:20:59;23.70;;;13.10;;
74630;SDS011;63138;55.082;38.804;2024-01-25T12:23:39;19.92;;;8.57;;
74630;SDS011;63138;55.082;38.804;2024-01-25T12:26:07;16.75;;;9.93;;
74630;SDS011;63138;55.082;38.804;2024-01-25T12:28:34;21.23;;;10.23;;
74630;SDS011;63138;55.082;38.804;2024-01-25T12:31:04;15.67;;;8.73;;
74630;SDS011;63138;55.082;38.804;2024-01-25T12:33:33;20.35;;;11.90;;
74630;SDS011;63138;55.082;38.804;2024-01-25T12:36:01;18.52;;;10.10;;
74630;SDS011;63138;55.082;38.804;2024-01-25T12:38:28;20.30;;;10.82;;
74630;SDS011;63138;55.082;38.804;2024-01-25T12:41:00;21.08;;;11.27;;
74630;SDS011;63138;55.082;38.804;2024-01-25T12:43:26;12.03;;;7.67;;
74630;SDS011;63138;55.082;38.804;2024-01-25T12:45:53;17.67;;;9.38;;
74630;SDS011;63138;55.082;38.804;2024-01-25T12:48:19;21.38;;;10.82;;
74630;SDS011;63138;55.082;38.804;2024-01-25T12:50:45;22.30;;;11.77;;
74630;SDS011;63138;55.082;38.804;2024-01-25T12:53:13;21.15;;;8.85;;
74630;SDS011;63138;55.082;38.804;2024-01-25T12:55:40;16.43;;;9.80;;
74630;SDS011;63138;55.082;38.804;2024-01-25T12:58:06;21.38;;;10.55;;
74630;SDS011;63138;55.082;38.804;2024-01-25T13:00:32;20.95;;;11.00;;
74630;SDS011;63138;55.082;38.804;2024-01-25T13:02:58;18.15;;;8.73;;
74630;SDS011;63138;55.082;38.804;2024-01-25T13:05:27;25.65;;;11.93;;
74630;SDS011;63138;55.082;38.804;2024-01-25T13:07:53;20.93;;;11.33;;
74630;SDS011;63138;55.082;38.804;2024-01-25T13:10:19;19.70;;;10.63;;
74630;SDS011;63138;55.082;38.804;2024-01-25T13:12:45;17.58;;;9.32;;
74630;SDS011;63138;55.082;38.804;2024-01-25T13:15:11;21.75;;;10.10;;
74630;SDS011;63138;55.082;38.804;2024-01-25T13:17:37;18.83;;;10.93;;
74630;SDS011;63138;55.082;38.804;2024-01-25T13:20:04;19.23;;;10.85;;
74630;SDS011;63138;55.082;38.804;2024-01-25T13:22:32;17.33;;;10.65;;
74630;SDS011;63138;55.082;38.804;2024-01-25T13:25:02;17.77;;;9.82;;
74630;SDS011;63138;55.082;38.804;2024-01-25T13:27:32;23.77;;;12.63;;
74630;SDS011;63138;55.082;38.804;2024-01-25T13:29:58;15.30;;;10.00;;
74630;SDS011;63138;55.082;38.804;2024-01-25T13:34:59;21.25;;;12.45;;
74630;SDS011;63138;55.082;38.804;2024-01-25T13:37:25;17.52;;;10.40;;
74630;SDS011;63138;55.082;38.804;2024-01-25T13:39:52;18.70;;;9.82;;
74630;SDS011;63138;55.082;38.804;2024-01-25T13:42:18;24.40;;;13.23;;
74630;SDS011;63138;55.082;38.804;2024-01-25T13:44:44;21.23;;;11.63;;
74630;SDS011;63138;55.082;38.804;2024-01-25T13:47:11;19.58;;;11.57;;
74630;SDS011;63138;55.082;38.804;2024-01-25T13:49:38;20.55;;;12.13;;
74630;SDS011;63138;55.082;38.804;2024-01-25T13:52:05;16.87;;;9.03;;
74630;SDS011;63138;55.082;38.804;2024-01-25T13:54:33;24.83;;;11.02;;
74630;SDS011;63138;55.082;38.804;2024-01-25T13:57:00;29.83;;;13.55;;
74630;SDS011;63138;55.082;38.804;2024-01-25T13:59:26;20.92;;;12.18;;
74630;SDS011;63138;55.082;38.804;2024-01-25T14:01:52;23.25;;;9.57;;
74630;SDS011;63138;55.082;38.804;2024-01-25T14:04:18;19.07;;;11.53;;
74630;SDS011;63138;55.082;38.804;2024-01-25T14:07:27;23.50;;;12.38;;
74630;SDS011;63138;55.082;38.804;2024-01-25T14:09:53;19.85;;;9.63;;
74630;SDS011;63138;55.082;38.804;2024-01-25T14:12:20;18.10;;;11.43;;
74630;SDS011;63138;55.082;38.804;2024-01-25T14:14:46;22.73;;;11.00;;
74630;SDS011;63138;55.082;38.804;2024-01-25T14:17:12;17.58;;;10.48;;
74630;SDS011;63138;55.082;38.804;2024-01-25T14:22:32;25.48;;;13.43;;
74630;SDS011;63138;55.082;38.804;2024-01-25T14:24:59;19.47;;;12.37;;
74630;SDS011;63138;55.082;38.804;2024-01-25T14:27:25;24.67;;;13.77;;